sensor_id;sensor_type;location;lat;lon;timestamp;P1;durP1;ratioP1;P2;durP2;ratioP2
3801;SDS011;1916;51.798;12.246;2023-06-24T00:01:39;47.43;;;28.70;;
3801;SDS011;1916;51.798;12.246;2023-06-24T00:03:41;47.10;;;28.47;;
3801;SDS011;1916;51.798;12.246;2023-06-24T00:05:48;51.83;;;32.80;;
3801;SDS011;1916;51.798;12.246;2023-06-24T00:07:51;54.97;;;33.23;;
3801;SDS011;1916;51.798;12.246;2023-06-24T00:09:54;56.87;;;31.00;;
3801;SDS011;1916;51.798;12.246;2023-06-24T00:11:56;61.63;;;33.50;;
3801;SDS011;1916;51.798;12.246;2023-06-24T00:14:00;52.47;;;32.60;;
3801;SDS011;1916;51.798;12.246;2023-06-24T00:16:02;49.63;;;31.50;;
3801;SDS011;1916;51.798;12.246;2023-06-24T00:18:05;51.43;;;32.43;;
3801;SDS011;1916;51.798;12.246;2023-06-24T00:20:08;47.77;;;31.13;;
3801;SDS011;1916;51.798;12.246;2023-06-24T00:22:12;58.83;;;31.97;;
3801;SDS011;1916;51.798;12.246;2023-06-24T00:24:17;49.10;;;32.20;;
3801;SDS011;1916;51.798;12.246;2023-06-24T00:26:21;56.80;;;33.27;;
3801;SDS011;1916;51.798;12.246;2023-06-24T00:28:23;45.93;;;31.90;;
3801;SDS011;1916;51.798;12.246;2023-06-24T00:30:25;48.67;;;31.37;;
3801;SDS011;1916;51.798;12.246;2023-06-24T00:32:30;48.43;;;31.90;;
3801;SDS011;1916;51.798;12.246;2023-06-24T00:34:32;48.53;;;31.10;;
3801;SDS011;1916;51.798;12.246;2023-06-24T00:36:34;37.63;;;27.03;;
3801;SDS011;1916;51.798;12.246;2023-06-24T00:38:40;41.97;;;29.23;;
3801;SDS011;1916;51.798;12.246;2023-06-24T00:40:42;43.03;;;31.13;;
3801;SDS011;1916;51.798;12.246;2023-06-24T00:42:44;40.47;;;29.60;;
3801;SDS011;1916;51.798;12.246;2023-06-24T00:44:48;44.53;;;28.10;;
3801;SDS011;1916;51.798;12.246;2023-06-24T00:46:51;43.57;;;28.30;;
3801;SDS011;1916;51.798;12.246;2023-06-24T00:48:54;39.93;;;26.20;;
3801;SDS011;1916;51.798;12.246;2023-06-24T00:50:57;35.87;;;27.00;;
3801;SDS011;1916;51.798;12.246;2023-06-24T00:53:01;41.50;;;26.67;;
3801;SDS011;1916;51.798;12.246;2023-06-24T00:55:03;40.10;;;27.90;;
3801;SDS011;1916;51.798;12.246;2023-06-24T00:57:06;47.10;;;27.83;;
3801;SDS011;1916;51.798;12.246;2023-06-24T00:59:08;43.63;;;28.83;;
3801;SDS011;1916;51.798;12.246;2023-06-24T01:01:14;48.17;;;27.53;;
3801;SDS011;1916;51.798;12.246;2023-06-24T01:03:17;33.87;;;25.87;;
3801;SDS011;1916;51.798;12.246;2023-06-24T01:05:19;34.30;;;24.53;;
3801;SDS011;1916;51.798;12.246;2023-06-24T01:07:25;39.80;;;23.73;;
3801;SDS011;1916;51.798;12.246;2023-06-24T01:09:28;43.90;;;25.43;;
3801;SDS011;1916;51.798;12.246;2023-06-24T01:11:30;39.50;;;25.47;;
3801;SDS011;1916;51.798;12.246;2023-06-24T01:13:32;43.37;;;27.40;;
3801;SDS011;1916;51.798;12.246;2023-06-24T01:15:34;42.13;;;27.00;;
3801;SDS011;1916;51.798;12.246;2023-06-24T01:17:55;47.70;;;28.13;;
3801;SDS011;1916;51.798;12.246;2023-06-24T01:20:08;60.80;;;27.80;;
3801;SDS011;1916;51.798;12.246;2023-06-24T01:24:31;44.10;;;26.30;;
3801;SDS011;1916;51.798;12.246;2023-06-24T01:26:47;39.67;;;28.17;;
3801;SDS011;1916;51.798;12.246;2023-06-24T01:34:17;53.43;;;27.30;;
3801;SDS011;1916;51.798;12.246;2023-06-24T01:36:15;47.40;;;28.70;;
3801;SDS011;1916;51.798;12.246;2023-06-24T01:38:22;43.70;;;28.23;;
3801;SDS011;1916;51.798;12.246;2023-06-24T01:40:29;47.33;;;29.07;;
3801;SDS011;1916;51.798;12.246;2023-06-24T01:42:33;55.30;;;29.67;;
3801;SDS011;1916;51.798;12.246;2023-06-24T01:44:38;47.13;;;29.13;;
3801;SDS011;1916;51.798;12.246;2023-06-24T01:46:46;51.80;;;28.73;;
3801;SDS011;1916;51.798;12.246;2023-06-24T01:48:48;56.77;;;30.67;;
3801;SDS011;1916;51.798;12.246;2023-06-24T01:50:59;53.47;;;29.67;;
3801;SDS011;1916;51.798;12.246;2023-06-24T01:53:04;56.63;;;31.00;;
3801;SDS011;1916;51.798;12.246;2023-06-24T01:55:08;48.60;;;29.03;;
3801;SDS011;1916;51.798;12.246;2023-06-24T01:57:11;60.57;;;31.63;;
3801;SDS011;1916;51.798;12.246;2023-06-24T01:59:13;62.97;;;33.07;;
3801;SDS011;1916;51.798;12.246;2023-06-24T02:01:18;65.17;;;30.77;;
3801;SDS011;1916;51.798;12.246;2023-06-24T02:03:21;52.70;;;28.93;;
3801;SDS011;1916;51.798;12.246;2023-06-24T02:05:23;42.10;;;26.50;;
3801;SDS011;1916;51.798;12.246;2023-06-24T02:07:27;38.63;;;25.13;;
3801;SDS011;1916;51.798;12.246;2023-06-24T02:09:32;44.30;;;26.37;;
3801;SDS011;1916;51.798;12.246;2023-06-24T02:11:35;54.67;;;26.17;;
3801;SDS011;1916;51.798;12.246;2023-06-24T02:13:38;55.30;;;27.20;;
3801;SDS011;1916;51.798;12.246;2023-06-24T02:15:47;44.17;;;27.70;;
3801;SDS011;1916;51.798;12.246;2023-06-24T02:17:50;45.63;;;27.03;;
3801;SDS011;1916;51.798;12.246;2023-06-24T02:19:53;48.93;;;29.87;;
3801;SDS011;1916;51.798;12.246;2023-06-24T02:21:56;53.83;;;29.37;;
3801;SDS011;1916;51.798;12.246;2023-06-24T02:23:59;51.97;;;29.57;;
3801;SDS011;1916;51.798;12.246;2023-06-24T02:26:02;41.53;;;27.70;;
3801;SDS011;1916;51.798;12.246;2023-06-24T02:28:06;54.13;;;29.73;;
3801;SDS011;1916;51.798;12.246;2023-06-24T02:30:09;51.10;;;27.50;;
3801;SDS011;1916;51.798;12.246;2023-06-24T02:32:12;40.90;;;28.50;;
3801;SDS011;1916;51.798;12.246;2023-06-24T02:34:15;45.67;;;27.93;;
3801;SDS011;1916;51.798;12.246;2023-06-24T02:36:18;41.50;;;27.93;;
3801;SDS011;1916;51.798;12.246;2023-06-24T02:38:20;49.43;;;26.77;;
3801;SDS011;1916;51.798;12.246;2023-06-24T02:40:22;44.20;;;25.90;;
3801;SDS011;1916;51.798;12.246;2023-06-24T02:42:24;51.27;;;26.47;;
3801;SDS011;1916;51.798;12.246;2023-06-24T02:44:26;46.03;;;26.00;;
3801;SDS011;1916;51.798;12.246;2023-06-24T02:46:28;39.10;;;24.73;;
3801;SDS011;1916;51.798;12.246;2023-06-24T02:48:32;35.17;;;22.90;;
3801;SDS011;1916;51.798;12.246;2023-06-24T02:50:36;46.17;;;23.10;;
3801;SDS011;1916;51.798;12.246;2023-06-24T02:52:39;31.93;;;22.17;;
3801;SDS011;1916;51.798;12.246;2023-06-24T02:54:44;38.03;;;21.83;;
3801;SDS011;1916;51.798;12.246;2023-06-24T02:56:52;30.30;;;21.70;;
3801;SDS011;1916;51.798;12.246;2023-06-24T02:59:02;33.07;;;21.20;;
3801;SDS011;1916;51.798;12.246;2023-06-24T03:01:04;38.20;;;21.87;;
3801;SDS011;1916;51.798;12.246;2023-06-24T03:03:23;37.17;;;21.07;;
3801;SDS011;1916;51.798;12.246;2023-06-24T03:05:28;37.53;;;22.70;;
3801;SDS011;1916;51.798;12.246;2023-06-24T03:07:30;31.83;;;22.10;;
3801;SDS011;1916;51.798;12.246;2023-06-24T03:09:34;39.20;;;21.93;;
3801;SDS011;1916;51.798;12.246;2023-06-24T03:11:42;38.67;;;21.63;;
3801;SDS011;1916;51.798;12.246;2023-06-24T03:13:48;38.27;;;21.43;;
3801;SDS011;1916;51.798;12.246;2023-06-24T03:16:01;35.77;;;21.60;;
3801;SDS011;1916;51.798;12.246;2023-06-24T03:18:06;32.33;;;22.67;;
3801;SDS011;1916;51.798;12.246;2023-06-24T03:20:09;35.10;;;22.97;;
3801;SDS011;1916;51.798;12.246;2023-06-24T03:22:12;31.27;;;22.37;;
3801;SDS011;1916;51.798;12.246;2023-06-24T03:24:16;37.80;;;24.07;;
3801;SDS011;1916;51.798;12.246;2023-06-24T03:26:22;36.30;;;22.33;;
3801;SDS011;1916;51.798;12.246;2023-06-24T03:28:25;28.80;;;20.57;;
3801;SDS011;1916;51.798;12.246;2023-06-24T03:30:39;45.77;;;21.60;;
3801;SDS011;1916;51.798;12.246;2023-06-24T03:32:41;33.53;;;20.63;;
3801;SDS011;1916;51.798;12.246;2023-06-24T03:34:50;34.50;;;21.93;;
3801;SDS011;1916;51.798;12.246;2023-06-24T03:36:52;48.57;;;22.10;;
3801;SDS011;1916;51.798;12.246;2023-06-24T03:38:56;36.50;;;20.87;;
3801;SDS011;1916;51.798;12.246;2023-06-24T03:40:59;40.23;;;20.20;;
3801;SDS011;1916;51.798;12.246;2023-06-24T03:43:01;31.33;;;21.03;;
3801;SDS011;1916;51.798;12.246;2023-06-24T03:45:04;32.73;;;21.07;;
3801;SDS011;1916;51.798;12.246;2023-06-24T03:47:06;30.70;;;21.00;;
3801;SDS011;1916;51.798;12.246;2023-06-24T03:49:09;36.00;;;20.93;;
3801;SDS011;1916;51.798;12.246;2023-06-24T03:51:11;37.13;;;23.60;;
3801;SDS011;1916;51.798;12.246;2023-06-24T03:53:13;35.63;;;21.27;;
3801;SDS011;1916;51.798;12.246;2023-06-24T03:55:16;33.00;;;22.23;;
3801;SDS011;1916;51.798;12.246;2023-06-24T03:57:18;33.80;;;21.97;;
3801;SDS011;1916;51.798;12.246;2023-06-24T03:59:20;44.27;;;19.57;;
3801;SDS011;1916;51.798;12.246;2023-06-24T04:01:23;30.73;;;20.23;;
3801;SDS011;1916;51.798;12.246;2023-06-24T04:03:25;34.90;;;19.80;;
3801;SDS011;1916;51.798;12.246;2023-06-24T04:05:28;41.57;;;19.00;;
3801;SDS011;1916;51.798;12.246;2023-06-24T04:07:30;35.67;;;20.13;;
3801;SDS011;1916;51.798;12.246;2023-06-24T04:09:33;28.40;;;18.97;;
3801;SDS011;1916;51.798;12.246;2023-06-24T04:11:35;34.47;;;19.20;;
3801;SDS011;1916;51.798;12.246;2023-06-24T04:13:38;41.57;;;20.73;;
3801;SDS011;1916;51.798;12.246;2023-06-24T04:15:40;27.20;;;19.20;;
3801;SDS011;1916;51.798;12.246;2023-06-24T04:17:42;32.03;;;19.40;;
3801;SDS011;1916;51.798;12.246;2023-06-24T04:19:44;42.80;;;19.63;;
3801;SDS011;1916;51.798;12.246;2023-06-24T04:21:47;33.90;;;20.40;;
3801;SDS011;1916;51.798;12.246;2023-06-24T04:23:49;33.80;;;19.27;;
3801;SDS011;1916;51.798;12.246;2023-06-24T04:25:51;33.57;;;20.60;;
3801;SDS011;1916;51.798;12.246;2023-06-24T04:27:55;32.30;;;22.43;;
3801;SDS011;1916;51.798;12.246;2023-06-24T04:29:57;30.00;;;21.07;;
3801;SDS011;1916;51.798;12.246;2023-06-24T04:31:59;35.93;;;21.90;;
3801;SDS011;1916;51.798;12.246;2023-06-24T04:34:02;31.20;;;21.80;;
3801;SDS011;1916;51.798;12.246;2023-06-24T04:36:05;33.80;;;21.00;;
3801;SDS011;1916;51.798;12.246;2023-06-24T04:38:07;36.03;;;20.83;;
3801;SDS011;1916;51.798;12.246;2023-06-24T04:40:10;32.37;;;21.17;;
3801;SDS011;1916;51.798;12.246;2023-06-24T04:42:12;32.50;;;19.20;;
3801;SDS011;1916;51.798;12.246;2023-06-24T04:44:16;34.90;;;19.60;;
3801;SDS011;1916;51.798;12.246;2023-06-24T04:46:18;38.33;;;19.50;;
3801;SDS011;1916;51.798;12.246;2023-06-24T04:48:22;36.30;;;21.80;;
3801;SDS011;1916;51.798;12.246;2023-06-24T04:50:25;33.67;;;19.00;;
3801;SDS011;1916;51.798;12.246;2023-06-24T04:52:27;27.43;;;17.37;;
3801;SDS011;1916;51.798;12.246;2023-06-24T04:54:29;29.87;;;16.80;;
3801;SDS011;1916;51.798;12.246;2023-06-24T04:56:31;26.30;;;15.47;;
3801;SDS011;1916;51.798;12.246;2023-06-24T04:58:33;23.10;;;15.70;;
3801;SDS011;1916;51.798;12.246;2023-06-24T05:00:35;23.23;;;15.20;;
3801;SDS011;1916;51.798;12.246;2023-06-24T05:02:38;21.50;;;16.20;;
3801;SDS011;1916;51.798;12.246;2023-06-24T05:04:40;21.20;;;16.33;;
3801;SDS011;1916;51.798;12.246;2023-06-24T05:06:43;24.23;;;16.10;;
3801;SDS011;1916;51.798;12.246;2023-06-24T05:08:45;20.33;;;15.00;;
3801;SDS011;1916;51.798;12.246;2023-06-24T05:10:47;24.87;;;16.70;;
3801;SDS011;1916;51.798;12.246;2023-06-24T05:12:49;28.00;;;16.30;;
3801;SDS011;1916;51.798;12.246;2023-06-24T05:14:51;23.03;;;14.77;;
3801;SDS011;1916;51.798;12.246;2023-06-24T05:16:54;21.93;;;13.77;;
3801;SDS011;1916;51.798;12.246;2023-06-24T05:18:56;23.63;;;15.07;;
3801;SDS011;1916;51.798;12.246;2023-06-24T05:20:58;22.87;;;14.97;;
3801;SDS011;1916;51.798;12.246;2023-06-24T05:23:00;26.67;;;17.60;;
3801;SDS011;1916;51.798;12.246;2023-06-24T05:25:03;21.47;;;15.43;;
3801;SDS011;1916;51.798;12.246;2023-06-24T05:27:05;22.73;;;14.73;;
3801;SDS011;1916;51.798;12.246;2023-06-24T05:29:08;22.03;;;15.33;;
3801;SDS011;1916;51.798;12.246;2023-06-24T05:31:10;25.67;;;14.80;;
3801;SDS011;1916;51.798;12.246;2023-06-24T05:33:12;17.77;;;13.80;;
3801;SDS011;1916;51.798;12.246;2023-06-24T05:35:15;18.47;;;14.70;;
3801;SDS011;1916;51.798;12.246;2023-06-24T05:37:17;18.83;;;13.50;;
3801;SDS011;1916;51.798;12.246;2023-06-24T05:39:20;19.30;;;13.50;;
3801;SDS011;1916;51.798;12.246;2023-06-24T05:41:22;21.13;;;13.50;;
3801;SDS011;1916;51.798;12.246;2023-06-24T05:43:25;16.60;;;12.30;;
3801;SDS011;1916;51.798;12.246;2023-06-24T05:45:27;15.97;;;12.40;;
3801;SDS011;1916;51.798;12.246;2023-06-24T05:47:29;16.60;;;13.00;;
3801;SDS011;1916;51.798;12.246;2023-06-24T05:49:31;17.63;;;12.40;;
3801;SDS011;1916;51.798;12.246;2023-06-24T05:51:33;14.83;;;12.10;;
3801;SDS011;1916;51.798;12.246;2023-06-24T05:53:35;18.60;;;12.30;;
3801;SDS011;1916;51.798;12.246;2023-06-24T05:55:38;18.80;;;14.20;;
3801;SDS011;1916;51.798;12.246;2023-06-24T05:57:40;16.10;;;13.37;;
3801;SDS011;1916;51.798;12.246;2023-06-24T05:59:42;17.00;;;13.90;;
3801;SDS011;1916;51.798;12.246;2023-06-24T06:01:44;15.67;;;13.20;;
3801;SDS011;1916;51.798;12.246;2023-06-24T06:03:46;18.20;;;12.93;;
3801;SDS011;1916;51.798;12.246;2023-06-24T06:05:49;17.37;;;12.50;;
3801;SDS011;1916;51.798;12.246;2023-06-24T06:07:51;16.10;;;13.57;;
3801;SDS011;1916;51.798;12.246;2023-06-24T06:09:54;18.33;;;12.90;;
3801;SDS011;1916;51.798;12.246;2023-06-24T06:11:57;28.90;;;13.73;;
3801;SDS011;1916;51.798;12.246;2023-06-24T06:13:59;16.10;;;13.13;;
3801;SDS011;1916;51.798;12.246;2023-06-24T06:16:01;17.90;;;14.30;;
3801;SDS011;1916;51.798;12.246;2023-06-24T06:18:04;19.77;;;13.60;;
3801;SDS011;1916;51.798;12.246;2023-06-24T06:20:06;25.13;;;14.67;;
3801;SDS011;1916;51.798;12.246;2023-06-24T06:22:08;19.70;;;13.87;;
3801;SDS011;1916;51.798;12.246;2023-06-24T06:24:11;19.13;;;14.33;;
3801;SDS011;1916;51.798;12.246;2023-06-24T06:26:13;20.60;;;16.03;;
3801;SDS011;1916;51.798;12.246;2023-06-24T06:28:15;21.97;;;13.57;;
3801;SDS011;1916;51.798;12.246;2023-06-24T06:30:17;19.13;;;14.50;;
3801;SDS011;1916;51.798;12.246;2023-06-24T06:32:20;16.43;;;12.53;;
3801;SDS011;1916;51.798;12.246;2023-06-24T06:34:22;19.83;;;13.23;;
3801;SDS011;1916;51.798;12.246;2023-06-24T06:36:24;19.50;;;13.20;;
3801;SDS011;1916;51.798;12.246;2023-06-24T06:38:26;17.83;;;12.53;;
3801;SDS011;1916;51.798;12.246;2023-06-24T06:40:28;23.13;;;12.57;;
3801;SDS011;1916;51.798;12.246;2023-06-24T06:42:30;17.10;;;13.13;;
3801;SDS011;1916;51.798;12.246;2023-06-24T06:44:32;14.47;;;12.33;;
3801;SDS011;1916;51.798;12.246;2023-06-24T06:46:35;18.70;;;12.80;;
3801;SDS011;1916;51.798;12.246;2023-06-24T06:48:37;17.60;;;12.47;;
3801;SDS011;1916;51.798;12.246;2023-06-24T06:50:39;16.73;;;11.40;;
3801;SDS011;1916;51.798;12.246;2023-06-24T06:52:41;19.43;;;12.00;;
3801;SDS011;1916;51.798;12.246;2023-06-24T06:54:43;17.30;;;12.53;;
3801;SDS011;1916;51.798;12.246;2023-06-24T06:56:45;18.97;;;14.00;;
3801;SDS011;1916;51.798;12.246;2023-06-24T06:58:47;17.07;;;12.60;;
3801;SDS011;1916;51.798;12.246;2023-06-24T07:00:49;16.80;;;10.80;;
3801;SDS011;1916;51.798;12.246;2023-06-24T07:02:51;12.83;;;11.53;;
3801;SDS011;1916;51.798;12.246;2023-06-24T07:04:54;18.03;;;11.90;;
3801;SDS011;1916;51.798;12.246;2023-06-24T07:06:56;23.93;;;12.30;;
3801;SDS011;1916;51.798;12.246;2023-06-24T07:08:58;12.30;;;10.07;;
3801;SDS011;1916;51.798;12.246;2023-06-24T07:11:01;17.23;;;10.53;;
3801;SDS011;1916;51.798;12.246;2023-06-24T07:13:04;14.40;;;11.77;;
3801;SDS011;1916;51.798;12.246;2023-06-24T07:15:06;17.43;;;10.90;;
3801;SDS011;1916;51.798;12.246;2023-06-24T07:17:10;15.30;;;11.17;;
3801;SDS011;1916;51.798;12.246;2023-06-24T07:19:12;15.60;;;11.50;;
3801;SDS011;1916;51.798;12.246;2023-06-24T07:21:14;16.73;;;11.53;;
3801;SDS011;1916;51.798;12.246;2023-06-24T07:23:16;15.07;;;10.90;;
3801;SDS011;1916;51.798;12.246;2023-06-24T07:25:18;13.80;;;9.73;;
3801;SDS011;1916;51.798;12.246;2023-06-24T07:27:21;11.00;;;9.73;;
3801;SDS011;1916;51.798;12.246;2023-06-24T07:29:23;14.33;;;9.20;;
3801;SDS011;1916;51.798;12.246;2023-06-24T07:31:25;10.90;;;8.53;;
3801;SDS011;1916;51.798;12.246;2023-06-24T07:33:27;9.87;;;8.57;;
3801;SDS011;1916;51.798;12.246;2023-06-24T07:35:32;11.60;;;8.33;;
3801;SDS011;1916;51.798;12.246;2023-06-24T07:37:35;10.10;;;8.67;;
3801;SDS011;1916;51.798;12.246;2023-06-24T07:39:37;15.63;;;9.30;;
3801;SDS011;1916;51.798;12.246;2023-06-24T07:41:39;9.67;;;8.67;;
3801;SDS011;1916;51.798;12.246;2023-06-24T07:43:42;9.30;;;7.90;;
3801;SDS011;1916;51.798;12.246;2023-06-24T07:45:44;12.87;;;7.60;;
3801;SDS011;1916;51.798;12.246;2023-06-24T07:47:46;12.70;;;8.07;;
3801;SDS011;1916;51.798;12.246;2023-06-24T07:49:49;10.07;;;7.53;;
3801;SDS011;1916;51.798;12.246;2023-06-24T07:51:51;9.33;;;7.13;;
3801;SDS011;1916;51.798;12.246;2023-06-24T07:53:53;11.67;;;8.47;;
3801;SDS011;1916;51.798;12.246;2023-06-24T07:55:56;10.33;;;8.53;;
3801;SDS011;1916;51.798;12.246;2023-06-24T07:57:58;11.27;;;7.47;;
3801;SDS011;1916;51.798;12.246;2023-06-24T08:00:00;9.13;;;7.97;;
3801;SDS011;1916;51.798;12.246;2023-06-24T08:02:13;10.13;;;7.90;;
3801;SDS011;1916;51.798;12.246;2023-06-24T08:04:16;10.33;;;8.27;;
3801;SDS011;1916;51.798;12.246;2023-06-24T08:06:18;12.97;;;8.70;;
3801;SDS011;1916;51.798;12.246;2023-06-24T08:08:20;15.73;;;8.77;;
3801;SDS011;1916;51.798;12.246;2023-06-24T08:10:22;11.90;;;8.80;;
3801;SDS011;1916;51.798;12.246;2023-06-24T08:12:24;9.40;;;8.27;;
3801;SDS011;1916;51.798;12.246;2023-06-24T08:14:27;9.93;;;8.47;;
3801;SDS011;1916;51.798;12.246;2023-06-24T08:16:29;11.30;;;8.60;;
3801;SDS011;1916;51.798;12.246;2023-06-24T08:18:31;11.80;;;9.17;;
3801;SDS011;1916;51.798;12.246;2023-06-24T08:20:33;14.77;;;8.90;;
3801;SDS011;1916;51.798;12.246;2023-06-24T08:22:35;13.17;;;9.40;;
3801;SDS011;1916;51.798;12.246;2023-06-24T08:24:39;10.83;;;8.17;;
3801;SDS011;1916;51.798;12.246;2023-06-24T08:26:41;15.63;;;9.50;;
3801;SDS011;1916;51.798;12.246;2023-06-24T08:28:43;9.90;;;8.70;;
3801;SDS011;1916;51.798;12.246;2023-06-24T08:30:48;12.37;;;9.03;;
3801;SDS011;1916;51.798;12.246;2023-06-24T08:32:50;9.13;;;7.97;;
3801;SDS011;1916;51.798;12.246;2023-06-24T08:34:52;9.30;;;7.43;;
3801;SDS011;1916;51.798;12.246;2023-06-24T08:36:54;8.73;;;7.67;;
3801;SDS011;1916;51.798;12.246;2023-06-24T08:38:57;9.53;;;7.60;;
3801;SDS011;1916;51.798;12.246;2023-06-24T08:40:59;9.27;;;6.37;;
3801;SDS011;1916;51.798;12.246;2023-06-24T08:43:01;9.93;;;6.90;;
3801;SDS011;1916;51.798;12.246;2023-06-24T08:45:03;9.37;;;6.73;;
3801;SDS011;1916;51.798;12.246;2023-06-24T08:47:05;12.03;;;7.13;;
3801;SDS011;1916;51.798;12.246;2023-06-24T08:51:14;10.37;;;7.67;;
3801;SDS011;1916;51.798;12.246;2023-06-24T08:53:18;10.93;;;8.43;;
3801;SDS011;1916;51.798;12.246;2023-06-24T08:55:22;10.57;;;8.27;;
3801;SDS011;1916;51.798;12.246;2023-06-24T08:57:25;9.30;;;8.37;;
3801;SDS011;1916;51.798;12.246;2023-06-24T08:59:28;11.10;;;7.90;;
3801;SDS011;1916;51.798;12.246;2023-06-24T09:01:30;13.23;;;8.10;;
3801;SDS011;1916;51.798;12.246;2023-06-24T09:03:32;10.60;;;7.60;;
3801;SDS011;1916;51.798;12.246;2023-06-24T09:05:34;13.20;;;8.20;;
3801;SDS011;1916;51.798;12.246;2023-06-24T09:07:37;12.90;;;7.60;;
3801;SDS011;1916;51.798;12.246;2023-06-24T09:09:42;12.27;;;7.70;;
3801;SDS011;1916;51.798;12.246;2023-06-24T09:11:56;9.57;;;8.10;;
3801;SDS011;1916;51.798;12.246;2023-06-24T09:14:02;7.83;;;6.73;;
3801;SDS011;1916;51.798;12.246;2023-06-24T09:16:13;8.80;;;7.20;;
3801;SDS011;1916;51.798;12.246;2023-06-24T09:18:16;8.00;;;7.17;;
3801;SDS011;1916;51.798;12.246;2023-06-24T09:20:19;7.63;;;6.93;;
3801;SDS011;1916;51.798;12.246;2023-06-24T09:22:24;8.30;;;6.93;;
3801;SDS011;1916;51.798;12.246;2023-06-24T09:24:30;8.83;;;7.47;;
3801;SDS011;1916;51.798;12.246;2023-06-24T09:26:33;7.47;;;6.73;;
3801;SDS011;1916;51.798;12.246;2023-06-24T09:28:35;9.80;;;6.00;;
3801;SDS011;1916;51.798;12.246;2023-06-24T09:30:37;8.13;;;6.20;;
3801;SDS011;1916;51.798;12.246;2023-06-24T09:32:39;8.20;;;6.37;;
3801;SDS011;1916;51.798;12.246;2023-06-24T09:34:44;6.73;;;6.00;;
3801;SDS011;1916;51.798;12.246;2023-06-24T09:36:53;10.93;;;7.30;;
3801;SDS011;1916;51.798;12.246;2023-06-24T09:38:59;7.63;;;6.50;;
3801;SDS011;1916;51.798;12.246;2023-06-24T09:41:18;6.13;;;5.50;;
3801;SDS011;1916;51.798;12.246;2023-06-24T09:43:20;9.33;;;5.33;;
3801;SDS011;1916;51.798;12.246;2023-06-24T09:45:23;6.97;;;5.60;;
3801;SDS011;1916;51.798;12.246;2023-06-24T09:47:29;8.97;;;6.47;;
3801;SDS011;1916;51.798;12.246;2023-06-24T09:49:32;9.10;;;5.93;;
3801;SDS011;1916;51.798;12.246;2023-06-24T09:51:43;7.43;;;5.90;;
3801;SDS011;1916;51.798;12.246;2023-06-24T09:53:49;7.37;;;6.57;;
3801;SDS011;1916;51.798;12.246;2023-06-24T09:55:55;7.70;;;5.90;;
3801;SDS011;1916;51.798;12.246;2023-06-24T09:57:58;8.10;;;7.10;;
3801;SDS011;1916;51.798;12.246;2023-06-24T10:00:00;9.23;;;5.70;;
3801;SDS011;1916;51.798;12.246;2023-06-24T10:02:06;11.60;;;5.97;;
3801;SDS011;1916;51.798;12.246;2023-06-24T10:04:18;6.03;;;5.30;;
3801;SDS011;1916;51.798;12.246;2023-06-24T10:06:22;5.47;;;4.97;;
3801;SDS011;1916;51.798;12.246;2023-06-24T10:08:24;7.27;;;6.20;;
3801;SDS011;1916;51.798;12.246;2023-06-24T10:10:26;8.83;;;6.40;;
3801;SDS011;1916;51.798;12.246;2023-06-24T10:12:28;7.23;;;5.80;;
3801;SDS011;1916;51.798;12.246;2023-06-24T10:14:31;5.70;;;5.20;;
3801;SDS011;1916;51.798;12.246;2023-06-24T10:16:35;6.00;;;5.40;;
3801;SDS011;1916;51.798;12.246;2023-06-24T10:18:38;5.70;;;5.13;;
3801;SDS011;1916;51.798;12.246;2023-06-24T10:20:40;8.83;;;5.67;;
3801;SDS011;1916;51.798;12.246;2023-06-24T10:22:45;8.97;;;6.00;;
3801;SDS011;1916;51.798;12.246;2023-06-24T10:24:47;8.70;;;6.40;;
3801;SDS011;1916;51.798;12.246;2023-06-24T10:26:50;8.90;;;5.30;;
3801;SDS011;1916;51.798;12.246;2023-06-24T10:31:07;5.73;;;5.10;;
3801;SDS011;1916;51.798;12.246;2023-06-24T10:33:09;5.53;;;5.10;;
3801;SDS011;1916;51.798;12.246;2023-06-24T10:35:21;7.47;;;5.97;;
3801;SDS011;1916;51.798;12.246;2023-06-24T10:37:26;6.67;;;6.07;;
3801;SDS011;1916;51.798;12.246;2023-06-24T10:39:52;9.33;;;6.23;;
3801;SDS011;1916;51.798;12.246;2023-06-24T10:41:56;7.57;;;5.93;;
3801;SDS011;1916;51.798;12.246;2023-06-24T10:43:58;5.70;;;5.10;;
3801;SDS011;1916;51.798;12.246;2023-06-24T10:46:00;5.63;;;5.13;;
3801;SDS011;1916;51.798;12.246;2023-06-24T10:48:03;8.00;;;5.10;;
3801;SDS011;1916;51.798;12.246;2023-06-24T10:50:06;5.70;;;5.10;;
3801;SDS011;1916;51.798;12.246;2023-06-24T10:52:09;8.50;;;6.17;;
3801;SDS011;1916;51.798;12.246;2023-06-24T10:54:12;6.83;;;6.03;;
3801;SDS011;1916;51.798;12.246;2023-06-24T10:56:14;5.40;;;4.90;;
3801;SDS011;1916;51.798;12.246;2023-06-24T10:58:16;5.40;;;4.90;;
3801;SDS011;1916;51.798;12.246;2023-06-24T11:00:19;6.80;;;5.33;;
3801;SDS011;1916;51.798;12.246;2023-06-24T11:02:23;7.70;;;5.30;;
3801;SDS011;1916;51.798;12.246;2023-06-24T11:04:26;12.20;;;6.03;;
3801;SDS011;1916;51.798;12.246;2023-06-24T11:06:28;6.63;;;4.70;;
3801;SDS011;1916;51.798;12.246;2023-06-24T11:08:30;6.30;;;4.80;;
3801;SDS011;1916;51.798;12.246;2023-06-24T11:10:32;5.37;;;4.90;;
3801;SDS011;1916;51.798;12.246;2023-06-24T11:12:36;5.97;;;5.37;;
3801;SDS011;1916;51.798;12.246;2023-06-24T11:14:39;4.80;;;4.30;;
3801;SDS011;1916;51.798;12.246;2023-06-24T11:16:42;6.03;;;4.80;;
3801;SDS011;1916;51.798;12.246;2023-06-24T11:18:44;4.63;;;4.00;;
3801;SDS011;1916;51.798;12.246;2023-06-24T11:20:47;4.47;;;3.83;;
3801;SDS011;1916;51.798;12.246;2023-06-24T11:22:49;4.83;;;4.37;;
3801;SDS011;1916;51.798;12.246;2023-06-24T11:24:51;5.60;;;4.90;;
3801;SDS011;1916;51.798;12.246;2023-06-24T11:26:54;5.17;;;4.67;;
3801;SDS011;1916;51.798;12.246;2023-06-24T11:28:57;4.50;;;4.10;;
3801;SDS011;1916;51.798;12.246;2023-06-24T11:31:06;4.77;;;4.23;;
3801;SDS011;1916;51.798;12.246;2023-06-24T11:33:11;5.53;;;5.00;;
3801;SDS011;1916;51.798;12.246;2023-06-24T11:35:14;5.00;;;4.50;;
3801;SDS011;1916;51.798;12.246;2023-06-24T11:37:17;5.37;;;4.10;;
3801;SDS011;1916;51.798;12.246;2023-06-24T11:39:23;11.03;;;4.13;;
3801;SDS011;1916;51.798;12.246;2023-06-24T11:41:27;4.60;;;4.20;;
3801;SDS011;1916;51.798;12.246;2023-06-24T11:43:29;4.67;;;4.37;;
3801;SDS011;1916;51.798;12.246;2023-06-24T11:45:31;5.60;;;4.17;;
3801;SDS011;1916;51.798;12.246;2023-06-24T11:47:34;7.20;;;5.20;;
3801;SDS011;1916;51.798;12.246;2023-06-24T11:49:50;7.57;;;4.67;;
3801;SDS011;1916;51.798;12.246;2023-06-24T11:51:53;4.83;;;4.20;;
3801;SDS011;1916;51.798;12.246;2023-06-24T11:53:55;5.33;;;4.83;;
3801;SDS011;1916;51.798;12.246;2023-06-24T11:56:01;7.13;;;4.93;;
3801;SDS011;1916;51.798;12.246;2023-06-24T11:58:03;4.53;;;4.13;;
3801;SDS011;1916;51.798;12.246;2023-06-24T12:00:13;5.33;;;4.30;;
3801;SDS011;1916;51.798;12.246;2023-06-24T12:02:16;6.43;;;4.37;;
3801;SDS011;1916;51.798;12.246;2023-06-24T12:04:18;5.77;;;4.50;;
3801;SDS011;1916;51.798;12.246;2023-06-24T12:06:21;5.13;;;4.17;;
3801;SDS011;1916;51.798;12.246;2023-06-24T12:08:24;4.63;;;4.23;;
3801;SDS011;1916;51.798;12.246;2023-06-24T12:10:28;5.33;;;4.70;;
3801;SDS011;1916;51.798;12.246;2023-06-24T12:12:31;4.27;;;3.87;;
3801;SDS011;1916;51.798;12.246;2023-06-24T12:14:33;6.37;;;4.50;;
3801;SDS011;1916;51.798;12.246;2023-06-24T12:16:36;4.50;;;4.10;;
3801;SDS011;1916;51.798;12.246;2023-06-24T12:18:38;4.97;;;3.93;;
3801;SDS011;1916;51.798;12.246;2023-06-24T12:20:40;5.60;;;4.20;;
3801;SDS011;1916;51.798;12.246;2023-06-24T12:22:43;5.73;;;3.90;;
3801;SDS011;1916;51.798;12.246;2023-06-24T12:24:46;5.50;;;4.20;;
3801;SDS011;1916;51.798;12.246;2023-06-24T12:26:48;4.67;;;4.27;;
3801;SDS011;1916;51.798;12.246;2023-06-24T12:28:53;4.97;;;4.50;;
3801;SDS011;1916;51.798;12.246;2023-06-24T12:30:58;5.60;;;4.57;;
3801;SDS011;1916;51.798;12.246;2023-06-24T12:33:00;4.97;;;4.57;;